Strona główna
METAR-TAF:

METAR-TAF

Lotnisko :

Port lotniczy Ambon

Ambon, Indonezja

Szerokość geograficzna: 03-42S, Długość geograficzna: 128-05E, wysokość: 12 m

Aktualna obserwacja pogody

Raport powstał 7 godziny i 55 minut temu, godzina 02:30 UTC
Wiatr 12 kt od północno-północny zachód w porywach dochodzący do 22 kt, zmienny między północny zachód i północno-północny wschód
Temperatura 33°C
Wilgotność 59%
Ciśnienie 1010 hPa
Widzialność 10 km lub więcej
Rozproszone chmury na wysokości 1600 ft

METAR: WAPP 180230Z 34012G22KT 310V020 9999 SCT016 33/24 Q1010 NOSIG

czas: 19:25 (10:25 UTC)

Prognoza

Raport powstał 5 godziny i 25 minut temu, godzina 05:00 UTC
Prognoza ważna od 18 godzina 06 UTC do 19 godzina 06 UTC
Wiatr 6 kt od północny zachód
Widzialność 10 km lub więcej
Rozproszone chmury na wysokości 1700 ft

TAF: WAPP 180500Z 1806/1906 32006KT 9999 SCT017

Obserwacja i prognoza pogody dla ponad 4000 lotnisk (raport METAR i TAF).

Dostępne stacje oznaczono żółtymi i czerwonymi punktami na mapie.

Najedź kursorem aby zobaczyć nazwę stacji.

Kliknij aby zobaczyć obserwacje i prognozy pogody.

Aby zmienić mapę: kliknij na zielony przycisk z czarnym krzyżykiem, aby powiększyć; na zielony przycisk z myślnikiem, aby pomniejszyć; na zielone strzałki, aby przejść do map sąsiednich.


METAR-TAF: